Time;durP1;ratioP1;P1;durP2;ratioP2;P2;SDS_P1;SDS_P2;PMS_P1;PMS_P2;Temp;Humidity;BMP_temperature;BMP_pressure;BME280_temperature;BME280_humidity;BME280_pressure;Samples;Min_cycle;Max_cycle;Signal;HPM_P1;HPM_P2
2023/09/30 00:04:55;;;;;;;;;;;16.00;99.90;;;;;;20996049;28;20372;-81
2023/09/30 00:14:56;;;;;;;;;;;16.20;99.90;;;;;;20990275;28;19948;-80
2023/09/30 00:24:56;;;;;;;;;;;16.00;99.90;;;;;;20993981;28;19923;-80
2023/09/30 00:34:57;;;;;;;;;;;16.20;99.90;;;;;;20996162;28;20375;-79
2023/09/30 00:44:58;;;;;;;;;;;16.10;99.90;;;;;;20989466;28;19917;-79
2023/09/30 00:54:59;;;;;;;;;;;16.10;99.90;;;;;;20987038;28;19913;-79
2023/09/30 01:04:59;;;;;;;;;;;15.80;99.90;;;;;;20974505;28;20450;-81
2023/09/30 01:15:00;;;;;;;;;;;15.60;99.90;;;;;;20972155;28;19913;-79
2023/09/30 01:25:01;;;;;;;;;;;15.50;99.90;;;;;;20978320;28;19943;-79
2023/09/30 01:35:01;;;;;;;;;;;15.60;99.90;;;;;;20971799;28;19919;-81
2023/09/30 01:45:02;;;;;;;;;;;15.60;99.90;;;;;;20978979;28;20238;-81
2023/09/30 01:55:03;;;;;;;;;;;15.60;99.90;;;;;;20988744;28;19912;-80
2023/09/30 02:05:04;;;;;;;;;;;15.60;99.90;;;;;;20968975;28;19917;-79
2023/09/30 02:15:07;;;;;;;;;;;15.60;99.90;;;;;;21000838;28;19913;-81
2023/09/30 02:25:07;;;;;;;;;;;15.70;99.90;;;;;;20975031;28;19920;-80
2023/09/30 02:35:12;;;;;;;;;;;15.30;99.90;;;;;;20972061;28;19919;-80
2023/09/30 02:45:13;;;;;;;;;;;15.30;99.90;;;;;;20982315;28;20303;-79
2023/09/30 02:55:14;;;;;;;;;;;15.30;99.90;;;;;;20975720;28;20293;-79
2023/09/30 03:05:15;;;;;;;;;;;15.20;99.90;;;;;;20988141;28;19917;-77
2023/09/30 03:15:16;;;;;;;;;;;15.20;99.90;;;;;;20978855;28;19923;-77
2023/09/30 03:25:18;;;;;;;;;;;15.10;99.90;;;;;;20993600;28;20098;-80
2023/09/30 03:35:19;;;;;;;;;;;15.10;99.90;;;;;;20965362;28;20379;-79
2023/09/30 03:45:20;;;;;;;;;;;15.00;99.90;;;;;;20977847;28;19970;-78
2023/09/30 03:55:20;;;;;;;;;;;15.10;99.90;;;;;;20986332;28;20383;-78
2023/09/30 04:05:26;;;;;;;;;;;15.00;99.90;;;;;;20976367;28;20474;-80
2023/09/30 04:15:27;;;;;;;;;;;15.00;99.90;;;;;;20966745;28;20282;-78
2023/09/30 04:25:28;;;;;;;;;;;14.80;99.90;;;;;;20968728;28;19921;-80
2023/09/30 04:35:30;;;;;;;;;;;14.60;99.90;;;;;;20993938;28;19966;-80
2023/09/30 04:45:31;;;;;;;;;;;14.40;99.90;;;;;;21001239;28;20011;-78
2023/09/30 04:55:32;;;;;;;;;;;14.20;99.90;;;;;;20996498;28;19966;-79
2023/09/30 05:05:32;;;;;;;;;;;14.30;99.90;;;;;;20994548;28;19921;-80
2023/09/30 05:15:35;;;;;;;;;;;14.50;99.90;;;;;;20996294;28;19927;-80
2023/09/30 05:25:36;;;;;;;;;;;14.60;99.90;;;;;;21004828;28;19921;-80
2023/09/30 05:35:36;;;;;;;;;;;14.40;99.90;;;;;;21000172;28;19924;-80
2023/09/30 05:45:40;;;;;;;;;;;14.30;99.90;;;;;;21006986;28;20612;-80
2023/09/30 05:55:45;;;;;;;;;;;14.30;99.90;;;;;;20984843;28;19916;-76
2023/09/30 06:05:46;;;;;;;;;;;14.40;99.90;;;;;;20985636;28;20011;-78
2023/09/30 06:15:46;;;;;;;;;;;14.80;99.90;;;;;;21012956;28;19916;-80
2023/09/30 06:25:47;;;;;;;;;;;14.90;99.90;;;;;;21003271;28;20011;-79
2023/09/30 06:35:51;;;;;;;;;;;15.10;99.90;;;;;;20991750;28;19916;-81
2023/09/30 06:45:51;;;;;;;;;;;15.50;99.90;;;;;;21001389;28;19926;-79
2023/09/30 06:55:52;;;;;;;;;;;15.90;99.90;;;;;;20981675;28;20264;-78
2023/09/30 07:05:54;;;;;;;;;;;16.30;99.90;;;;;;20974547;28;19948;-78
2023/09/30 07:15:54;;;;;;;;;;;16.50;99.90;;;;;;20945734;28;19916;-78
2023/09/30 07:25:55;;;;;;;;;;;16.70;99.90;;;;;;20967264;28;20040;-77
2023/09/30 07:35:55;;;;;;;;;;;17.30;99.90;;;;;;20986047;28;20352;-79
2023/09/30 07:45:56;;;;;;;;;;;17.50;99.90;;;;;;20992806;28;19923;-77
2023/09/30 07:55:57;;;;;;;;;;;18.20;99.90;;;;;;21009020;28;20027;-78
2023/09/30 08:05:58;;;;;;;;;;;18.40;99.90;;;;;;21028059;28;19927;-78
2023/09/30 08:15:59;;;;;;;;;;;19.40;99.90;;;;;;21022900;28;20299;-78
2023/09/30 08:26:00;;;;;;;;;;;19.10;99.90;;;;;;21020714;28;19932;-78
2023/09/30 08:36:07;;;;;;;;;;;19.10;99.90;;;;;;20985856;28;19917;-80
2023/09/30 08:46:09;;;;;;;;;;;19.50;99.90;;;;;;21005155;28;19917;-82
2023/09/30 08:56:10;;;;;;;;;;;20.10;99.90;;;;;;20996510;28;19913;-81
2023/09/30 09:06:11;;;;;;;;;;;19.90;99.90;;;;;;20982106;28;19923;-79
2023/09/30 09:16:11;;;;;;;;;;;20.00;99.90;;;;;;20992331;28;19912;-79
2023/09/30 09:26:13;;;;;;;;;;;21.00;99.90;;;;;;20985839;28;19917;-82
2023/09/30 09:36:14;;;;;;;;;;;21.30;99.90;;;;;;20986454;28;19966;-79
2023/09/30 09:46:16;;;;;;;;;;;21.50;99.90;;;;;;20997240;28;20318;-80
2023/09/30 09:56:17;;;;;;;;;;;22.00;99.90;;;;;;20993007;28;20011;-78
2023/09/30 10:06:20;;;;;;;;;;;22.90;99.90;;;;;;20965903;28;19917;-80
2023/09/30 10:16:36;;;;;;;;;;;23.70;99.90;;;;;;20993284;28;19967;-81
2023/09/30 10:26:36;;;;;;;;;;;24.60;99.90;;;;;;20972225;28;19927;-81
2023/09/30 10:36:41;;;;;;;;;;;24.90;99.90;;;;;;20986882;28;21122;-80
2023/09/30 10:46:41;;;;;;;;;;;25.50;99.90;;;;;;20985497;28;19916;-78
2023/09/30 10:56:42;;;;;;;;;;;25.30;99.90;;;;;;20969227;28;19942;-78
2023/09/30 11:06:42;;;;;;;;;;;26.60;99.90;;;;;;20991143;28;19974;-81
2023/09/30 11:16:44;;;;;;;;;;;25.90;99.90;;;;;;20978740;28;19948;-82
2023/09/30 11:26:45;;;;;;;;;;;27.00;99.90;;;;;;20974213;28;19967;-83
2023/09/30 11:36:50;;;;;;;;;;;25.60;99.90;;;;;;20976878;28;19916;-81
2023/09/30 11:46:55;;;;;;;;;;;25.50;99.90;;;;;;20967824;28;19993;-80
2023/09/30 11:56:56;;;;;;;;;;;25.90;99.90;;;;;;20999237;28;19919;-80
2023/09/30 12:06:57;;;;;;;;;;;24.90;99.90;;;;;;20991590;28;19920;-79
2023/09/30 12:16:58;;;;;;;;;;;25.30;99.90;;;;;;20972050;28;19971;-80
2023/09/30 12:26:58;;;;;;;;;;;24.90;99.90;;;;;;20983067;28;20003;-77
2023/09/30 12:36:59;;;;;;;;;;;26.60;99.90;;;;;;20975918;28;19918;-78
2023/09/30 12:47:00;;;;;;;;;;;25.90;99.90;;;;;;20976674;28;19963;-76
2023/09/30 12:57:01;;;;;;;;;;;24.70;99.90;;;;;;20970714;28;20011;-76
2023/09/30 13:07:02;;;;;;;;;;;24.70;99.90;;;;;;20989826;28;19920;-79
2023/09/30 13:17:03;;;;;;;;;;;24.30;99.90;;;;;;20994271;28;19912;-81
2023/09/30 13:27:04;;;;;;;;;;;24.10;99.90;;;;;;20989948;28;19924;-82
2023/09/30 13:37:05;;;;;;;;;;;24.50;99.90;;;;;;21005812;28;20007;-78
2023/09/30 13:47:06;;;;;;;;;;;24.40;99.90;;;;;;21005841;28;19978;-78
2023/09/30 13:57:09;;;;;;;;;;;25.00;99.90;;;;;;21004829;28;19966;-82
2023/09/30 14:07:09;;;;;;;;;;;24.00;99.90;;;;;;20988301;28;19976;-79
2023/09/30 14:17:10;;;;;;;;;;;23.90;99.90;;;;;;21043477;28;19913;-78
2023/09/30 14:27:13;;;;;;;;;;;23.30;99.90;;;;;;21023271;28;19917;-78
2023/09/30 14:37:13;;;;;;;;;;;23.50;99.90;;;;;;21028952;28;19920;-79
2023/09/30 14:47:14;;;;;;;;;;;23.80;99.90;;;;;;21006250;28;19916;-78
2023/09/30 14:57:15;;;;;;;;;;;23.70;99.90;;;;;;20988617;28;19913;-78
2023/09/30 15:07:16;;;;;;;;;;;23.60;99.90;;;;;;20983431;28;19959;-77
2023/09/30 15:17:17;;;;;;;;;;;23.70;99.90;;;;;;20976468;28;19916;-76
2023/09/30 15:27:18;;;;;;;;;;;23.90;99.90;;;;;;20976602;28;19923;-79
2023/09/30 15:37:18;;;;;;;;;;;23.30;99.90;;;;;;21004622;28;19913;-78
2023/09/30 15:47:19;;;;;;;;;;;23.00;99.90;;;;;;20982142;28;19943;-80
2023/09/30 15:57:20;;;;;;;;;;;22.40;99.90;;;;;;20974392;28;19967;-80
2023/09/30 16:07:21;;;;;;;;;;;22.00;99.90;;;;;;20962662;28;19917;-78
2023/09/30 16:17:21;;;;;;;;;;;21.90;99.90;;;;;;20977486;28;20379;-79
2023/09/30 16:27:22;;;;;;;;;;;21.50;99.90;;;;;;21002149;28;20007;-80
2023/09/30 16:37:23;;;;;;;;;;;21.10;99.90;;;;;;21004794;28;19912;-81
2023/09/30 16:47:23;;;;;;;;;;;20.80;99.90;;;;;;21004375;28;19917;-80
2023/09/30 16:57:24;;;;;;;;;;;20.60;99.90;;;;;;20999582;28;19913;-79
2023/09/30 17:07:25;;;;;;;;;;;20.30;99.90;;;;;;20987606;28;20288;-80
2023/09/30 17:17:27;;;;;;;;;;;19.80;99.90;;;;;;21011398;28;19913;-80
2023/09/30 17:27:27;;;;;;;;;;;19.30;99.90;;;;;;20989080;28;19942;-79
2023/09/30 17:37:29;;;;;;;;;;;19.30;99.90;;;;;;20991945;28;19917;-80
2023/09/30 17:47:29;;;;;;;;;;;18.90;99.90;;;;;;21019989;28;20382;-80
2023/09/30 17:57:31;;;;;;;;;;;18.40;99.90;;;;;;20982828;28;19916;-80
2023/09/30 18:07:33;;;;;;;;;;;18.10;99.90;;;;;;21011177;28;19963;-80
2023/09/30 18:17:35;;;;;;;;;;;17.70;99.90;;;;;;21000394;28;19912;-80
2023/09/30 18:27:36;;;;;;;;;;;16.80;99.90;;;;;;20997547;28;19916;-80
2023/09/30 18:37:36;;;;;;;;;;;17.00;99.90;;;;;;20976498;28;20359;-80
2023/09/30 18:47:37;;;;;;;;;;;16.90;99.90;;;;;;20993807;28;19927;-79
2023/09/30 18:57:38;;;;;;;;;;;16.00;99.90;;;;;;21001868;28;19913;-80
2023/09/30 19:07:39;;;;;;;;;;;16.10;99.90;;;;;;21012525;28;19924;-80
2023/09/30 19:17:40;;;;;;;;;;;15.00;99.90;;;;;;20985021;28;19967;-80
2023/09/30 19:27:41;;;;;;;;;;;14.80;99.90;;;;;;20982239;28;20015;-80
2023/09/30 19:37:41;;;;;;;;;;;15.90;99.90;;;;;;20985929;28;20275;-81
2023/09/30 19:47:42;;;;;;;;;;;15.00;99.90;;;;;;20975857;28;19916;-80
2023/09/30 19:57:42;;;;;;;;;;;14.50;99.90;;;;;;20999940;28;19956;-81
2023/09/30 20:07:43;;;;;;;;;;;14.50;99.90;;;;;;21008253;28;19920;-79
2023/09/30 20:17:49;;;;;;;;;;;14.60;99.90;;;;;;21027959;28;19971;-80
2023/09/30 20:27:49;;;;;;;;;;;14.40;99.90;;;;;;21032517;28;19923;-78
2023/09/30 20:37:50;;;;;;;;;;;14.40;99.90;;;;;;21022751;28;20367;-81
2023/09/30 20:47:50;;;;;;;;;;;14.40;99.90;;;;;;21024596;28;19937;-80
2023/09/30 20:57:52;;;;;;;;;;;14.30;99.90;;;;;;21021847;28;19916;-81
2023/09/30 21:07:52;;;;;;;;;;;13.90;99.90;;;;;;21026704;28;19954;-81
2023/09/30 21:17:53;;;;;;;;;;;13.60;99.90;;;;;;21027228;28;20418;-82
2023/09/30 21:27:54;;;;;;;;;;;13.60;99.90;;;;;;21019493;28;19916;-82
2023/09/30 21:37:54;;;;;;;;;;;13.60;99.90;;;;;;21024826;28;19920;-82
2023/09/30 21:47:55;;;;;;;;;;;13.00;99.90;;;;;;21023541;28;20434;-82
2023/09/30 21:57:56;;;;;;;;;;;13.00;99.90;;;;;;21023908;28;19912;-80
2023/09/30 22:07:56;;;;;;;;;;;12.50;99.90;;;;;;21034252;28;19923;-82
2023/09/30 22:17:57;;;;;;;;;;;12.60;99.90;;;;;;21014246;28;19922;-80
2023/09/30 22:27:58;;;;;;;;;;;12.60;99.90;;;;;;20986951;28;19978;-80
2023/09/30 22:37:59;;;;;;;;;;;12.40;99.90;;;;;;21004753;28;19912;-80
2023/09/30 22:48:00;;;;;;;;;;;11.90;99.90;;;;;;20999770;28;19923;-81
2023/09/30 22:58:00;;;;;;;;;;;11.90;99.90;;;;;;20996572;28;19912;-80
2023/09/30 23:08:01;;;;;;;;;;;11.80;99.90;;;;;;20987188;28;20337;-80
2023/09/30 23:18:02;;;;;;;;;;;11.80;99.90;;;;;;21011639;28;20031;-80
2023/09/30 23:28:06;;;;;;;;;;;11.70;99.90;;;;;;21001001;28;19916;-80
2023/09/30 23:38:07;;;;;;;;;;;11.50;99.90;;;;;;20994439;28;20027;-80
2023/09/30 23:48:08;;;;;;;;;;;11.40;99.90;;;;;;20998180;28;19920;-78
2023/09/30 23:58:10;;;;;;;;;;;11.40;99.90;;;;;;20986448;28;20402;-80
